Time;durP1;ratioP1;P1;durP2;ratioP2;P2;SDS_P1;SDS_P2;PMS_P1;PMS_P2;Temp;Humidity;BMP_temperature;BMP_pressure;BME280_temperature;BME280_humidity;BME280_pressure;Samples;Min_cycle;Max_cycle;Signal;HPM_P1;HPM_P2
2022/06/13 00:01:42;;;;;;;6.00;2.20;;;;;;;25.72;26.76;101629.31;5044649;28;20076;-75
2022/06/13 00:04:09;;;;;;;4.82;2.17;;;;;;;25.71;26.81;101630.34;5042577;28;20036;-75
2022/06/13 00:06:36;;;;;;;5.00;2.17;;;;;;;25.67;26.83;101618.75;5040015;28;20092;-75
2022/06/13 00:09:07;;;;;;;4.10;1.80;;;;;;;25.68;26.97;101617.69;5042369;28;20079;-75
2022/06/13 00:11:34;;;;;;;4.05;2.15;;;;;;;25.64;26.60;101623.78;5045272;28;20131;-75
2022/06/13 00:14:01;;;;;;;5.40;1.85;;;;;;;25.61;26.73;101633.34;5042309;28;20147;-75
2022/06/13 00:16:27;;;;;;;5.15;1.83;;;;;;;25.58;26.71;101619.78;5043919;28;20479;-75
2022/06/13 00:18:55;;;;;;;4.15;1.80;;;;;;;25.57;26.84;101618.06;5041191;28;20064;-75
2022/06/13 00:21:33;;;;;;;5.18;1.67;;;;;;;25.56;27.19;101615.44;5048625;28;20135;-75
2022/06/13 00:24:01;;;;;;;4.38;1.88;;;;;;;25.53;26.84;101610.28;5041740;28;20126;-75
2022/06/13 00:26:30;;;;;;;4.50;2.00;;;;;;;25.51;26.74;101610.44;5047205;28;20064;-75
2022/06/13 00:28:58;;;;;;;4.05;1.58;;;;;;;25.48;26.93;101609.94;5039754;28;20157;-75
2022/06/13 00:31:25;;;;;;;4.35;1.80;;;;;;;25.46;27.18;101609.25;5036441;28;20459;-75
2022/06/13 00:33:52;;;;;;;5.10;2.15;;;;;;;25.44;26.79;101609.44;5046397;28;20160;-75
2022/06/13 00:36:23;;;;;;;5.25;2.00;;;;;;;25.42;27.22;101610.66;5045965;28;20084;-75
2022/06/13 00:38:51;;;;;;;3.72;1.92;;;;;;;25.39;26.95;101609.09;5042475;28;20120;-75
2022/06/13 00:41:23;;;;;;;4.57;1.98;;;;;;;25.39;26.94;101607.19;5042785;28;20103;-75
2022/06/13 00:43:51;;;;;;;4.63;2.22;;;;;;;25.32;27.32;101608.97;5046474;28;20037;-75
2022/06/13 00:46:32;;;;;;;5.63;2.03;;;;;;;25.31;27.00;101600.81;5045391;28;20099;-75
2022/06/13 00:49:12;;;;;;;3.72;1.98;;;;;;;25.30;27.79;101594.38;5045561;28;20045;-75
2022/06/13 00:51:49;;;;;;;4.22;2.00;;;;;;;25.28;27.50;101592.84;5046577;28;20128;-75
2022/06/13 00:54:19;;;;;;;4.68;2.00;;;;;;;25.25;27.57;101595.97;5042800;28;20115;-75
2022/06/13 00:56:48;;;;;;;5.25;2.25;;;;;;;25.21;27.46;101595.44;5044971;28;20549;-75
2022/06/13 00:59:20;;;;;;;3.85;2.20;;;;;;;25.22;27.95;101599.97;5040998;28;20119;-75
2022/06/13 01:01:46;;;;;;;3.97;1.85;;;;;;;25.16;27.69;101597.91;5042137;28;20123;-75
2022/06/13 01:04:13;;;;;;;4.72;2.17;;;;;;;25.15;27.87;101595.31;5046382;28;20045;-75
2022/06/13 01:06:47;;;;;;;5.22;1.90;;;;;;;25.16;27.85;101600.69;5045133;28;20076;-75
2022/06/13 01:09:16;;;;;;;5.95;2.10;;;;;;;25.10;27.47;101593.09;5042283;28;20080;-75
2022/06/13 01:11:48;;;;;;;4.85;2.40;;;;;;;25.10;27.71;101604.19;5046058;28;20076;-76
2022/06/13 01:14:53;;;;;;;4.43;2.20;;;;;;;25.04;28.13;101595.72;5041623;28;20072;-75
2022/06/13 01:17:30;;;;;;;4.93;1.90;;;;;;;25.04;27.93;101590.16;5036127;28;20123;-75
2022/06/13 01:20:05;;;;;;;4.35;2.03;;;;;;;25.02;28.03;101590.34;5039822;28;20053;-75
2022/06/13 01:22:47;;;;;;;5.35;2.03;;;;;;;24.97;28.03;101585.28;5041140;28;20518;-75
2022/06/13 01:25:25;;;;;;;5.50;2.13;;;;;;;24.94;28.58;101584.81;5039655;28;20129;-75
2022/06/13 01:28:17;;;;;;;3.50;1.85;;;;;;;24.91;28.51;101591.56;5043635;28;20080;-75
2022/06/13 01:31:02;;;;;;;4.72;1.85;;;;;;;24.86;28.15;101607.88;5038503;28;20482;-75
2022/06/13 01:33:31;;;;;;;5.80;1.80;;;;;;;24.81;28.43;101599.19;5047232;28;20099;-75
2022/06/13 01:36:04;;;;;;;3.20;1.70;;;;;;;24.84;28.45;101609.09;5048281;28;20124;-75
2022/06/13 01:38:42;;;;;;;;;;;;;;;24.51;28.89;101605.50;5039723;28;20056;-75
2022/06/13 01:41:18;;;;;;;5.28;1.90;;;;;;;24.75;28.96;101604.59;5046654;28;19920;-74
2022/06/13 01:44:15;;;;;;;4.72;2.13;;;;;;;24.71;28.92;101606.84;5044674;28;20077;-75
2022/06/13 01:47:01;;;;;;;3.85;1.90;;;;;;;24.72;28.90;101614.13;5021104;28;20079;-75
2022/06/13 01:49:41;;;;;;;4.10;1.83;;;;;;;24.69;28.44;101614.50;5043265;28;20040;-75
2022/06/13 01:52:21;;;;;;;4.47;1.90;;;;;;;24.65;28.99;101615.91;5038771;28;20048;-75
2022/06/13 01:54:54;;;;;;;4.07;2.00;;;;;;;24.62;28.96;101611.56;5044764;28;20049;-75
2022/06/13 01:57:32;;;;;;;5.50;1.98;;;;;;;24.60;28.75;101608.09;5043281;28;20087;-75
2022/06/13 02:00:07;;;;;;;6.60;1.98;;;;;;;24.58;29.04;101614.88;5039591;28;20137;-75
2022/06/13 02:02:55;;;;;;;4.80;2.08;;;;;;;24.54;28.92;101613.50;5042936;28;20148;-75
2022/06/13 02:05:34;;;;;;;5.03;2.08;;;;;;;24.53;29.05;101620.97;5038958;28;20136;-75
2022/06/13 02:08:09;;;;;;;4.10;2.25;;;;;;;24.50;29.54;101612.09;5043730;28;20140;-75
2022/06/13 02:11:06;;;;;;;6.47;2.00;;;;;;;24.48;29.68;101615.03;5047221;28;20060;-75
2022/06/13 02:13:37;;;;;;;3.67;1.70;;;;;;;24.41;29.13;101611.22;5036804;28;20055;-75
2022/06/13 02:16:14;;;;;;;4.82;1.90;;;;;;;24.44;29.71;101608.13;5036611;28;20045;-75
2022/06/13 02:18:55;;;;;;;5.07;2.00;;;;;;;24.43;29.91;101611.06;5044645;28;20055;-75
2022/06/13 02:21:29;;;;;;;3.72;2.10;;;;;;;24.40;29.86;101614.19;5042651;28;20549;-75
2022/06/13 02:24:05;;;;;;;6.45;2.10;;;;;;;24.39;29.53;101620.78;5047195;28;20095;-75
2022/06/13 02:26:35;;;;;;;3.00;1.65;;;;;;;24.38;30.02;101614.34;5043856;28;20110;-75
2022/06/13 02:29:11;;;;;;;4.03;1.95;;;;;;;24.39;30.33;101612.44;5038303;28;20549;-75
2022/06/13 02:31:46;;;;;;;4.93;2.00;;;;;;;24.37;29.79;101606.22;5045064;28;20162;-75
2022/06/13 02:34:19;;;;;;;5.22;2.28;;;;;;;24.34;30.31;101614.88;5048043;28;20057;-75
2022/06/13 02:37:03;;;;;;;4.30;1.80;;;;;;;24.32;30.26;101605.84;5046616;28;20470;-75
2022/06/13 02:39:43;;;;;;;4.55;1.80;;;;;;;24.31;29.71;101606.91;5037550;28;20128;-75
2022/06/13 02:42:24;;;;;;;3.67;2.22;;;;;;;24.30;29.97;101603.25;5045340;28;20132;-76
2022/06/13 02:45:18;;;;;;;4.65;2.25;;;;;;;24.24;30.45;101588.16;5050163;28;20072;-75
2022/06/13 02:47:52;;;;;;;4.68;1.85;;;;;;;24.25;30.52;101589.91;5047474;28;20056;-75
2022/06/13 02:50:38;;;;;;;4.68;2.28;;;;;;;24.24;30.59;101595.63;5044346;28;20065;-75
2022/06/13 02:53:15;;;;;;;4.07;2.00;;;;;;;24.22;30.52;101594.94;5042642;28;20065;-75
2022/06/13 02:55:51;;;;;;;3.78;2.15;;;;;;;24.20;30.08;101600.66;5048570;28;20072;-76
2022/06/13 02:58:42;;;;;;;3.45;2.08;;;;;;;24.19;30.41;101610.00;5044746;28;20071;-77
2022/06/13 03:01:26;;;;;;;4.38;2.20;;;;;;;24.15;30.42;101605.81;5044740;28;20083;-75
2022/06/13 03:04:14;;;;;;;3.97;2.13;;;;;;;24.13;30.43;101609.81;5045233;28;20132;-76
2022/06/13 03:06:55;;;;;;;7.28;2.30;;;;;;;24.12;30.69;101608.09;5046569;28;20045;-75
2022/06/13 03:09:31;;;;;;;3.97;1.83;;;;;;;24.09;30.96;101606.53;5043728;28;20530;-75
2022/06/13 03:12:04;;;;;;;4.50;2.10;;;;;;;24.07;30.49;101603.03;5045268;28;20124;-75
2022/06/13 03:14:39;;;;;;;6.35;2.25;;;;;;;24.06;30.82;101601.31;5042842;28;20058;-75
2022/06/13 03:17:17;;;;;;;3.75;2.25;;;;;;;24.04;30.98;101608.09;5050262;28;20049;-75
2022/06/13 03:19:54;;;;;;;4.78;2.03;;;;;;;24.03;30.77;101611.91;5041764;28;20135;-75
2022/06/13 03:22:29;;;;;;;4.75;2.38;;;;;;;23.97;30.92;101609.78;5046001;28;20045;-76
2022/06/13 03:25:08;;;;;;;4.28;2.20;;;;;;;23.99;30.64;101607.72;5046202;28;20041;-75
2022/06/13 03:27:43;;;;;;;4.43;2.33;;;;;;;23.97;31.27;101616.19;5043208;28;20073;-75
2022/06/13 03:30:17;;;;;;;3.75;2.40;;;;;;;23.96;30.98;101611.72;5051161;28;20107;-75
2022/06/13 03:33:39;;;;;;;5.10;2.40;;;;;;;23.93;30.95;101612.06;5047629;28;20099;-75
2022/06/13 03:35:37;;;;;;;5.45;2.35;;;;;;;23.92;31.06;101617.75;5047837;28;20128;-75
2022/06/13 03:38:08;;;;;;;6.07;2.28;;;;;;;23.93;30.78;101608.41;5046035;28;20049;-75
2022/06/13 03:40:39;;;;;;;5.47;2.58;;;;;;;23.92;30.61;101612.22;5051603;28;20686;-75
2022/06/13 03:43:12;;;;;;;6.45;2.60;;;;;;;23.92;31.29;101612.22;5041155;28;20488;-75
2022/06/13 03:45:55;;;;;;;3.70;2.20;;;;;;;23.90;31.14;101604.94;5044833;28;20045;-75
2022/06/13 03:48:44;;;;;;;6.18;3.00;;;;;;;23.86;31.40;101602.69;5049291;28;20056;-76
2022/06/13 03:51:39;;;;;;;6.25;2.75;;;;;;;23.83;31.31;101606.66;5041712;28;20098;-75
2022/06/13 03:54:16;;;;;;;4.15;2.47;;;;;;;23.85;31.22;101604.59;5037880;28;20045;-75
2022/06/13 03:56:54;;;;;;;5.45;2.13;;;;;;;23.85;31.34;101600.94;5051848;28;20045;-75
2022/06/13 03:59:31;;;;;;;6.95;2.53;;;;;;;23.84;31.26;101593.66;5051796;28;20095;-75
2022/06/13 04:02:03;;;;;;;5.47;2.67;;;;;;;23.83;31.20;101603.88;5050743;28;20456;-75
2022/06/13 04:04:40;;;;;;;5.95;2.63;;;;;;;23.84;31.70;101605.63;5047651;28;20080;-75
2022/06/13 04:07:07;;;;;;;5.93;2.55;;;;;;;23.80;31.58;101603.38;5046979;28;20049;-75
2022/06/13 04:09:43;;;;;;;5.20;2.25;;;;;;;23.81;31.51;101602.31;5049050;28;20080;-75
2022/06/13 04:12:28;;;;;;;6.50;2.60;;;;;;;23.78;31.70;101606.31;5036062;28;20076;-75
2022/06/13 04:15:07;;;;;;;4.72;2.08;;;;;;;23.80;31.74;101608.91;5050358;28;20048;-75
2022/06/13 04:17:52;;;;;;;4.43;2.38;;;;;;;23.77;32.12;101601.78;5045753;28;20075;-75
2022/06/13 04:20:51;;;;;;;5.00;2.60;;;;;;;23.70;32.06;101605.41;5047168;28;20102;-75
2022/06/13 04:23:29;;;;;;;3.70;2.22;;;;;;;23.74;32.14;101607.66;5037486;28;20123;-75
2022/06/13 04:26:13;;;;;;;6.13;2.65;;;;;;;23.75;31.87;101605.78;5037806;28;20049;-76
2022/06/13 04:28:50;;;;;;;5.22;2.88;;;;;;;23.73;31.93;101603.16;5040628;28;20572;-76
2022/06/13 04:31:20;;;;;;;4.70;2.25;;;;;;;23.72;31.62;101603.34;5044775;28;20068;-76
2022/06/13 04:33:54;;;;;;;5.60;2.47;;;;;;;23.74;32.14;101613.22;5040748;28;20522;-75
2022/06/13 04:36:23;;;;;;;4.63;2.22;;;;;;;23.70;31.93;101613.75;5044060;28;20057;-76
2022/06/13 04:38:54;;;;;;;4.90;2.47;;;;;;;23.70;32.08;101617.38;5045224;28;20053;-75
2022/06/13 04:41:26;;;;;;;4.82;2.38;;;;;;;23.70;31.99;101622.94;5044425;28;20428;-76
2022/06/13 04:43:56;;;;;;;5.23;2.30;;;;;;;23.69;31.94;101631.41;5043942;28;20128;-75
2022/06/13 04:46:27;;;;;;;5.03;2.53;;;;;;;23.71;32.95;101655.16;5045485;28;20299;-76
2022/06/13 04:48:58;;;;;;;5.22;2.28;;;;;;;23.69;32.91;101673.88;5047117;28;20044;-74
2022/06/13 04:51:28;;;;;;;8.82;3.83;;;;;;;23.70;33.63;101666.41;5045833;28;20053;-77
2022/06/13 04:54:17;;;;;;;6.95;3.08;;;;;;;23.69;34.90;101646.16;5043187;28;20051;-78
2022/06/13 04:56:44;;;;;;;5.55;2.95;;;;;;;23.64;34.44;101633.81;5046945;28;20140;-78
2022/06/13 04:59:15;;;;;;;5.43;3.00;;;;;;;23.66;35.64;101645.59;5040010;28;20451;-78
2022/06/13 05:01:45;;;;;;;5.07;2.90;;;;;;;23.64;35.77;101653.22;5040593;28;20492;-78
2022/06/13 05:04:19;;;;;;;5.20;2.75;;;;;;;23.60;35.99;101638.84;5045316;28;20059;-79
2022/06/13 05:06:59;;;;;;;6.93;2.97;;;;;;;23.58;36.62;101648.34;5046101;28;20056;-77
2022/06/13 05:09:30;;;;;;;6.15;3.25;;;;;;;23.56;36.82;101644.88;5038080;28;20053;-78
2022/06/13 05:12:18;;;;;;;5.95;3.10;;;;;;;23.52;37.80;101653.53;5047399;28;20132;-79
2022/06/13 05:14:45;;;;;;;6.88;2.95;;;;;;;23.48;36.95;101656.75;5049819;28;20080;-78
2022/06/13 05:17:53;;;;;;;6.50;2.95;;;;;;;23.46;38.21;101654.19;5044043;28;20049;-79
2022/06/13 05:20:53;;;;;;;5.78;3.35;;;;;;;23.43;38.60;101657.28;5047723;28;20080;-79
2022/06/13 05:23:58;;;;;;;5.63;3.50;;;;;;;23.37;38.39;101657.94;5048914;28;20699;-79
2022/06/13 05:26:29;;;;;;;6.78;3.08;;;;;;;23.30;37.14;101662.41;5046192;28;20041;-78
2022/06/13 05:29:00;;;;;;;7.53;3.30;;;;;;;23.29;37.87;101662.59;5046452;28;20098;-78
2022/06/13 05:31:28;;;;;;;6.75;3.95;;;;;;;23.28;37.57;101660.84;5041870;28;20059;-79
2022/06/13 05:33:56;;;;;;;7.75;3.45;;;;;;;23.24;38.05;101665.81;5048514;28;20132;-79
2022/06/13 05:36:25;;;;;;;8.00;4.07;;;;;;;23.24;38.13;101668.59;5044971;28;20132;-79
2022/06/13 05:38:59;;;;;;;6.60;3.65;;;;;;;23.23;39.16;101668.75;5040410;28;20045;-80
2022/06/13 05:41:26;;;;;;;7.85;3.85;;;;;;;23.18;38.70;101660.09;5041371;28;20092;-79
2022/06/13 05:43:53;;;;;;;7.03;3.35;;;;;;;23.17;38.50;101661.97;5038777;28;20045;-79
2022/06/13 05:46:29;;;;;;;8.60;3.80;;;;;;;23.18;39.60;101660.97;5048379;28;20049;-79
2022/06/13 05:48:56;;;;;;;6.70;3.50;;;;;;;23.13;38.70;101677.22;5046663;28;20045;-78
2022/06/13 05:51:23;;;;;;;5.47;3.05;;;;;;;23.11;39.02;101685.69;5038424;28;20132;-79
2022/06/13 05:53:50;;;;;;;5.70;2.95;;;;;;;23.10;39.11;101683.94;5031946;28;20099;-79
2022/06/13 05:56:18;;;;;;;5.18;3.00;;;;;;;23.11;39.08;101684.81;5049215;28;20110;-78
2022/06/13 05:58:45;;;;;;;6.55;3.47;;;;;;;23.09;39.12;101684.09;5048111;28;20204;-79
2022/06/13 06:01:13;;;;;;;6.28;3.20;;;;;;;23.08;39.44;101682.34;5045944;28;20056;-79
2022/06/13 06:03:41;;;;;;;6.45;3.35;;;;;;;23.09;39.88;101686.88;5049215;28;20052;-79
2022/06/13 06:06:13;;;;;;;7.47;2.97;;;;;;;23.11;40.44;101688.44;5049341;28;20407;-79
2022/06/13 06:08:40;;;;;;;5.05;2.92;;;;;;;23.10;39.97;101695.03;5046088;28;20060;-80
2022/06/13 06:11:07;;;;;;;5.38;3.30;;;;;;;23.10;39.18;101703.34;5046245;28;20099;-78
2022/06/13 06:13:34;;;;;;;5.63;3.13;;;;;;;23.11;39.51;101706.97;5035682;28;20151;-79
2022/06/13 06:16:02;;;;;;;5.95;3.08;;;;;;;23.12;39.39;101719.81;5049059;28;20128;-79
2022/06/13 06:18:29;;;;;;;6.18;3.08;;;;;;;23.11;39.56;101718.94;5049550;28;20049;-79
2022/06/13 06:20:56;;;;;;;7.00;3.28;;;;;;;23.09;39.11;101709.91;5044834;28;20057;-80
2022/06/13 06:23:23;;;;;;;5.57;2.58;;;;;;;23.08;39.34;101687.91;5039637;28;20056;-78
2022/06/13 06:25:50;;;;;;;7.57;3.00;;;;;;;23.06;39.66;101679.75;5041121;28;20049;-80
2022/06/13 06:28:22;;;;;;;7.53;3.60;;;;;;;23.07;40.11;101688.94;5042628;28;20053;-80
2022/06/13 06:30:52;;;;;;;6.10;2.97;;;;;;;23.04;40.11;101706.75;5039683;28;20076;-80
2022/06/13 06:33:20;;;;;;;5.78;3.03;;;;;;;23.00;39.70;101699.78;5050403;28;20077;-80
2022/06/13 06:35:48;;;;;;;7.20;3.38;;;;;;;22.98;39.95;101700.97;5050500;28;20571;-80
2022/06/13 06:38:15;;;;;;;6.90;2.88;;;;;;;22.96;40.25;101692.00;5043314;28;20073;-78
2022/06/13 06:40:42;;;;;;;4.70;2.88;;;;;;;22.94;40.44;101696.81;5043230;28;20065;-79
2022/06/13 06:43:09;;;;;;;5.78;2.90;;;;;;;22.91;40.83;101692.47;5046600;28;20553;-79
2022/06/13 06:45:37;;;;;;;7.50;3.05;;;;;;;22.90;40.06;101699.03;5042492;28;20099;-82
2022/06/13 06:48:04;;;;;;;5.88;3.03;;;;;;;22.89;40.51;101701.97;5043345;28;20052;-80
2022/06/13 06:50:34;;;;;;;5.70;3.22;;;;;;;22.91;41.20;101705.44;5043039;28;20103;-84
2022/06/13 06:53:01;;;;;;;5.50;3.17;;;;;;;22.87;40.91;101704.03;5038147;28;20457;-82
2022/06/13 07:01:04;;;;;;;6.35;3.00;;;;;;;22.91;41.75;101708.22;5045889;28;20136;-84
2022/06/13 07:03:31;;;;;;;7.40;3.28;;;;;;;22.93;41.89;101708.91;5048979;28;20545;-84
2022/06/13 07:05:58;;;;;;;5.70;3.28;;;;;;;22.99;41.73;101705.50;5047206;28;20076;-83
2022/06/13 07:08:25;;;;;;;7.28;3.10;;;;;;;23.02;41.20;101719.91;5045366;28;20152;-83
2022/06/13 07:10:52;;;;;;;7.65;3.45;;;;;;;23.06;41.13;101715.75;5043682;28;20091;-83
2022/06/13 07:13:19;;;;;;;5.40;3.25;;;;;;;23.11;40.93;101715.28;5049220;28;20045;-85
2022/06/13 07:15:48;;;;;;;5.72;3.13;;;;;;;23.14;41.21;101717.75;5050324;28;20056;-82
2022/06/13 07:18:16;;;;;;;6.63;3.38;;;;;;;23.17;40.81;101719.28;5040452;28;20080;-82
2022/06/13 07:20:44;;;;;;;6.75;3.55;;;;;;;23.18;41.07;101719.13;5037279;28;20046;-83
2022/06/13 07:23:11;;;;;;;6.40;3.78;;;;;;;23.20;40.94;101716.22;5036734;28;20053;-84
2022/06/13 07:25:38;;;;;;;8.18;3.78;;;;;;;23.22;40.89;101717.78;5040761;28;20439;-82
2022/06/13 07:28:04;;;;;;;8.10;3.60;;;;;;;23.23;41.18;101716.72;5053693;28;20483;-81
2022/06/13 07:30:32;;;;;;;6.88;3.55;;;;;;;23.26;41.06;101719.19;5051993;28;20099;-82
2022/06/13 07:32:59;;;;;;;9.55;4.20;;;;;;;23.28;40.97;101722.66;5043676;28;20491;-83
2022/06/13 07:35:26;;;;;;;9.07;4.20;;;;;;;23.35;40.96;101722.88;5046540;28;20064;-84
2022/06/13 07:40:42;;;;;;;8.82;4.13;;;;;;;23.48;41.73;101743.59;5042389;28;20057;-82
2022/06/13 07:43:21;;;;;;;10.18;4.30;;;;;;;23.57;42.12;101729.78;5039120;28;20076;-83
2022/06/13 07:45:48;;;;;;;7.28;4.38;;;;;;;23.62;41.07;101735.72;5037758;28;20561;-84
2022/06/13 07:48:24;;;;;;;9.48;4.57;;;;;;;23.67;40.87;101730.53;5044339;28;20052;-83
2022/06/13 07:50:51;;;;;;;9.38;4.57;;;;;;;23.71;41.12;101738.34;5046681;28;20049;-82
2022/06/13 07:53:18;;;;;;;10.30;4.90;;;;;;;23.76;41.18;101733.16;5045360;28;20128;-83
2022/06/13 07:56:05;;;;;;;8.25;4.45;;;;;;;23.81;41.17;101738.19;5051936;28;20049;-82
2022/06/13 07:58:36;;;;;;;8.20;4.70;;;;;;;23.87;41.49;101738.41;5050074;28;20049;-82
2022/06/13 08:01:04;;;;;;;9.60;5.15;;;;;;;23.92;40.88;101743.44;5044983;28;20512;-82
2022/06/13 08:03:32;;;;;;;8.70;4.82;;;;;;;23.95;41.27;101743.13;5038172;28;20057;-83
2022/06/13 08:05:59;;;;;;;9.57;5.45;;;;;;;23.96;40.55;101752.31;5047852;28;20045;-83
2022/06/13 08:08:27;;;;;;;8.82;5.30;;;;;;;23.98;40.70;101750.22;5048012;28;20056;-83
2022/06/13 08:10:56;;;;;;;9.15;5.68;;;;;;;24.01;40.52;101752.66;5033815;28;20048;-83
2022/06/13 08:13:24;;;;;;;7.60;4.78;;;;;;;24.01;40.72;101755.44;5048840;28;20404;-83
2022/06/13 08:15:50;;;;;;;8.23;5.25;;;;;;;24.02;40.62;101757.19;5043890;28;20081;-83
2022/06/13 08:18:19;;;;;;;9.35;5.32;;;;;;;24.06;40.45;101764.13;5030330;28;20154;-82
2022/06/13 08:20:49;;;;;;;8.07;5.15;;;;;;;24.09;40.47;101766.56;5032662;28;20140;-82
2022/06/13 08:23:18;;;;;;;6.45;4.72;;;;;;;24.15;40.52;101766.75;5040331;28;20044;-82
2022/06/13 08:25:45;;;;;;;10.73;5.30;;;;;;;24.20;41.09;101761.63;5049746;28;20084;-82
2022/06/13 08:28:13;;;;;;;8.73;4.80;;;;;;;24.28;40.49;101760.78;5042026;28;20073;-82
2022/06/13 08:30:42;;;;;;;7.15;4.13;;;;;;;24.35;40.48;101760.97;5033832;28;20057;-82
2022/06/13 08:33:08;;;;;;;7.00;3.88;;;;;;;24.43;40.70;101766.53;5050156;28;20065;-82
2022/06/13 08:35:35;;;;;;;7.28;4.18;;;;;;;24.51;40.15;101767.41;5050710;28;20505;-81
2022/06/13 08:38:03;;;;;;;8.57;4.05;;;;;;;24.60;39.97;101766.38;5050806;28;20497;-81
2022/06/13 08:40:49;;;;;;;7.38;3.95;;;;;;;24.72;40.58;101763.25;5051301;28;20052;-81
2022/06/13 08:43:35;;;;;;;7.25;3.65;;;;;;;24.82;39.29;101775.94;5048714;28;20128;-81
2022/06/13 08:46:27;;;;;;;8.63;4.03;;;;;;;24.90;38.63;101772.28;5051174;28;20053;-81
2022/06/13 08:49:30;;;;;;;5.88;3.83;;;;;;;24.94;38.86;101774.59;5043004;28;20076;-81
2022/06/13 08:52:04;;;;;;;6.43;3.70;;;;;;;24.99;38.47;101780.50;5041555;28;20697;-81
2022/06/13 08:54:34;;;;;;;7.05;4.20;;;;;;;25.08;37.58;101777.72;5045090;28;20069;-81
2022/06/13 08:57:07;;;;;;;7.20;3.75;;;;;;;25.12;37.53;101782.72;5044024;28;20046;-81
2022/06/13 08:59:40;;;;;;;9.18;3.67;;;;;;;25.15;37.26;101779.59;5048203;28;20080;-82
2022/06/13 09:02:12;;;;;;;10.13;3.83;;;;;;;25.18;37.42;101776.50;5050064;28;20080;-81
2022/06/13 09:04:45;;;;;;;6.22;2.90;;;;;;;25.19;36.75;101777.38;5049816;28;20491;-81
2022/06/13 09:07:31;;;;;;;5.55;2.85;;;;;;;25.21;36.99;101778.03;5046573;28;20084;-81
2022/06/13 09:10:09;;;;;;;8.05;3.10;;;;;;;25.25;35.69;101782.22;5032608;28;20152;-81
2022/06/13 09:12:35;;;;;;;5.45;2.83;;;;;;;25.23;36.67;101775.94;5046736;28;20060;-81
2022/06/13 09:15:10;;;;;;;7.22;3.03;;;;;;;25.28;36.12;101782.72;5049998;28;20053;-81
2022/06/13 09:17:48;;;;;;;7.88;3.28;;;;;;;25.28;35.33;101787.44;5050161;28;20053;-82
2022/06/13 09:20:22;;;;;;;6.03;2.75;;;;;;;25.27;35.59;101781.00;5051438;28;20112;-81
2022/06/13 09:22:54;;;;;;;4.28;2.42;;;;;;;25.28;35.00;101788.25;5038067;28;20109;-81
2022/06/13 09:25:42;;;;;;;6.22;2.78;;;;;;;25.28;35.41;101787.44;5046367;28;20080;-81
2022/06/13 09:28:34;;;;;;;5.28;2.35;;;;;;;25.27;34.28;101794.03;5030224;28;20555;-82
2022/06/13 09:31:07;;;;;;;5.57;2.35;;;;;;;25.25;34.08;101794.19;5040776;28;20092;-82
2022/06/13 09:33:40;;;;;;;3.55;2.03;;;;;;;25.24;34.07;101800.78;5045016;28;20471;-82
2022/06/13 09:36:36;;;;;;;4.93;2.40;;;;;;;25.24;33.39;101799.94;5049284;28;20148;-80
2022/06/13 09:39:06;;;;;;;7.15;2.33;;;;;;;25.20;33.71;101802.19;5048994;28;20110;-81
2022/06/13 09:42:01;;;;;;;6.47;2.55;;;;;;;25.18;33.85;101806.19;5048739;28;20132;-81
2022/06/13 09:44:36;;;;;;;7.32;2.92;;;;;;;25.19;33.66;101811.59;5021010;28;20091;-82
2022/06/13 09:47:18;;;;;;;5.28;2.55;;;;;;;25.19;33.50;101810.72;5048958;28;20136;-82
2022/06/13 09:50:13;;;;;;;6.32;2.50;;;;;;;25.17;33.58;101816.44;5046516;28;20084;-82
2022/06/13 09:52:39;;;;;;;7.05;2.83;;;;;;;25.11;34.10;101803.25;5045929;28;20065;-81
2022/06/13 09:55:21;;;;;;;6.72;3.05;;;;;;;25.16;33.49;101808.28;5041909;28;20094;-81
2022/06/13 09:57:54;;;;;;;5.00;3.00;;;;;;;25.14;33.56;101810.34;5042362;28;20431;-82
2022/06/13 10:00:30;;;;;;;6.13;2.72;;;;;;;25.12;33.37;101810.50;5050614;28;20411;-81
2022/06/13 10:03:15;;;;;;;6.65;3.10;;;;;;;25.10;34.02;101804.28;5043185;28;20042;-81
2022/06/13 10:05:51;;;;;;;4.78;2.63;;;;;;;25.11;33.67;101805.16;5044868;28;20439;-81
2022/06/13 10:08:43;;;;;;;5.68;3.00;;;;;;;25.11;33.45;101808.81;5049576;28;20214;-81
2022/06/13 10:11:50;;;;;;;6.20;2.70;;;;;;;25.05;33.72;101809.47;5044820;28;20112;-81
2022/06/13 10:14:42;;;;;;;5.38;2.80;;;;;;;25.06;33.30;101818.69;5039953;28;20068;-81
2022/06/13 10:17:09;;;;;;;;;;;;;;;24.75;33.97;101815.69;5050779;28;20053;-81
2022/06/13 10:19:53;;;;;;;4.38;2.33;;;;;;;25.00;33.50;101810.00;5042260;28;19955;-80
2022/06/13 10:22:52;;;;;;;5.13;2.75;;;;;;;24.96;33.75;101816.06;5043942;28;20081;-80
2022/06/13 10:25:24;;;;;;;4.50;2.60;;;;;;;25.00;34.05;101812.78;5023993;28;20575;-80
2022/06/13 10:28:06;;;;;;;5.53;2.40;;;;;;;25.08;33.06;101811.06;5047229;28;20127;-81
2022/06/13 10:30:42;;;;;;;6.00;2.70;;;;;;;25.10;33.75;101814.53;5035130;28;20414;-81
2022/06/13 10:33:09;;;;;;;4.30;2.17;;;;;;;25.15;33.73;101812.09;5046454;28;20057;-81
2022/06/13 10:35:38;;;;;;;7.18;2.33;;;;;;;25.25;33.35;101812.78;5049956;28;20044;-80
2022/06/13 10:38:17;;;;;;;4.72;2.13;;;;;;;25.33;32.48;101807.22;5048059;28;20127;-80
2022/06/13 10:40:43;;;;;;;5.53;1.83;;;;;;;25.36;32.72;101810.53;5035548;28;20132;-80
2022/06/13 10:43:11;;;;;;;3.33;1.70;;;;;;;25.42;32.08;101814.50;5044325;28;20919;-80
2022/06/13 10:45:40;;;;;;;4.90;1.77;;;;;;;25.50;32.25;101814.50;5031190;28;20096;-80
2022/06/13 10:48:23;;;;;;;4.97;1.98;;;;;;;25.55;31.03;101813.94;5033813;28;20045;-81
2022/06/13 10:50:58;;;;;;;3.75;1.90;;;;;;;25.59;31.29;101805.13;5042547;28;20079;-80
2022/06/13 10:53:38;;;;;;;4.25;1.80;;;;;;;25.64;31.58;101805.44;5047817;28;20590;-80
2022/06/13 10:56:09;;;;;;;3.92;1.95;;;;;;;25.67;31.56;101807.00;5053699;28;20045;-80
2022/06/13 10:58:48;;;;;;;3.67;1.52;;;;;;;25.69;30.75;101808.59;5048136;28;20397;-80
2022/06/13 11:01:28;;;;;;;4.60;1.80;;;;;;;25.74;30.69;101808.91;5052547;28;20084;-80
2022/06/13 11:03:59;;;;;;;4.38;1.75;;;;;;;25.75;31.34;101807.88;5046898;28;20049;-80
2022/06/13 11:06:38;;;;;;;5.57;1.80;;;;;;;25.79;31.15;101802.78;5045402;28;20065;-80
2022/06/13 11:09:19;;;;;;;4.60;1.70;;;;;;;25.83;30.97;101811.66;5037964;28;20447;-79
2022/06/13 11:11:46;;;;;;;3.47;1.70;;;;;;;25.85;30.99;101815.13;5044420;28;20084;-80
2022/06/13 11:14:32;;;;;;;3.88;1.88;;;;;;;25.91;29.45;101814.41;5049644;28;20564;-80
2022/06/13 11:22:45;;;;;;;3.70;1.30;;;;;;;26.02;29.24;101819.59;5037805;28;20539;-80
2022/06/13 11:25:32;;;;;;;3.38;1.35;;;;;;;26.08;28.45;101813.31;5042489;28;20077;-80
2022/06/13 11:28:08;;;;;;;3.70;1.20;;;;;;;26.13;28.54;101806.13;5050670;28;20049;-80
2022/06/13 11:30:41;;;;;;;2.38;1.30;;;;;;;26.20;28.57;101808.19;5036603;28;20077;-80
2022/06/13 11:33:24;;;;;;;2.90;1.30;;;;;;;26.26;28.57;101808.38;5044255;28;20041;-79
2022/06/13 11:36:11;;;;;;;3.90;1.42;;;;;;;26.29;28.66;101813.56;5043148;28;20045;-80
2022/06/13 11:39:00;;;;;;;3.30;1.40;;;;;;;26.38;28.35;101809.69;5041815;28;20073;-80
2022/06/13 11:41:36;;;;;;;3.70;1.30;;;;;;;26.44;28.72;101802.53;5033551;28;20064;-80
2022/06/13 11:44:03;;;;;;;2.72;1.45;;;;;;;26.47;28.95;101816.97;5051632;28;20048;-80
2022/06/13 11:46:44;;;;;;;3.95;1.50;;;;;;;26.56;28.12;101817.78;5047278;28;20527;-80
2022/06/13 11:49:14;;;;;;;3.37;1.53;;;;;;;26.56;27.84;101814.13;5051814;28;20114;-80
2022/06/13 11:51:56;;;;;;;2.75;1.08;;;;;;;26.59;27.72;101814.63;5050151;28;20053;-80
2022/06/13 11:54:41;;;;;;;3.25;1.20;;;;;;;26.58;27.59;101826.81;5048645;28;20764;-79
2022/06/13 11:57:14;;;;;;;3.03;1.30;;;;;;;26.60;27.40;101827.53;5042413;28;20645;-79
2022/06/13 11:59:55;;;;;;;3.17;1.33;;;;;;;26.56;27.54;101822.47;5052280;28;20037;-80
2022/06/13 12:02:43;;;;;;;3.90;1.63;;;;;;;26.51;27.00;101826.69;5042226;28;20072;-80
2022/06/13 12:05:39;;;;;;;2.85;1.15;;;;;;;26.49;27.27;101817.66;5055694;28;20132;-79
2022/06/13 12:08:15;;;;;;;2.60;0.98;;;;;;;26.46;27.35;101825.50;5036617;28;20049;-81
2022/06/13 12:11:02;;;;;;;2.00;1.20;;;;;;;26.43;27.28;101817.53;5047710;28;20109;-80
2022/06/13 12:13:33;;;;;;;3.65;1.00;;;;;;;26.43;27.28;101817.53;5049699;28;20406;-80
2022/06/13 12:16:09;;;;;;;2.63;1.13;;;;;;;26.44;27.64;101814.53;5052199;28;20128;-80
2022/06/13 12:18:56;;;;;;;2.42;1.10;;;;;;;26.44;27.83;101811.75;5050649;28;20052;-80